sensor_id;sensor_type;location;lat;lon;timestamp;P1;durP1;ratioP1;P2;durP2;ratioP2
21769;SDS011;11046;49.558;8.674;2023-01-15T00:00:44;1.90;;;1.10;;
21769;SDS011;11046;49.558;8.674;2023-01-15T00:03:44;3.43;;;0.93;;
21769;SDS011;11046;49.558;8.674;2023-01-15T00:06:45;4.47;;;1.00;;
21769;SDS011;11046;49.558;8.674;2023-01-15T00:09:46;3.10;;;0.90;;
21769;SDS011;11046;49.558;8.674;2023-01-15T00:12:46;2.63;;;1.30;;
21769;SDS011;11046;49.558;8.674;2023-01-15T00:15:47;1.17;;;0.90;;
21769;SDS011;11046;49.558;8.674;2023-01-15T00:18:58;1.37;;;0.93;;
21769;SDS011;11046;49.558;8.674;2023-01-15T00:22:00;1.10;;;0.97;;
21769;SDS011;11046;49.558;8.674;2023-01-15T00:25:00;0.90;;;0.80;;
21769;SDS011;11046;49.558;8.674;2023-01-15T00:28:19;2.40;;;1.03;;
21769;SDS011;11046;49.558;8.674;2023-01-15T00:31:20;1.60;;;0.90;;
21769;SDS011;11046;49.558;8.674;2023-01-15T00:34:21;2.87;;;1.00;;
21769;SDS011;11046;49.558;8.674;2023-01-15T00:37:22;2.50;;;0.80;;
21769;SDS011;11046;49.558;8.674;2023-01-15T00:40:22;1.27;;;0.80;;
21769;SDS011;11046;49.558;8.674;2023-01-15T00:43:25;1.27;;;0.87;;
21769;SDS011;11046;49.558;8.674;2023-01-15T00:46:25;1.40;;;0.90;;
21769;SDS011;11046;49.558;8.674;2023-01-15T00:49:26;1.10;;;0.87;;
21769;SDS011;11046;49.558;8.674;2023-01-15T00:52:27;1.67;;;1.00;;
21769;SDS011;11046;49.558;8.674;2023-01-15T00:55:27;1.50;;;0.90;;
21769;SDS011;11046;49.558;8.674;2023-01-15T00:58:28;3.10;;;1.33;;
21769;SDS011;11046;49.558;8.674;2023-01-15T01:01:28;1.97;;;0.90;;
21769;SDS011;11046;49.558;8.674;2023-01-15T01:04:29;1.40;;;1.10;;
21769;SDS011;11046;49.558;8.674;2023-01-15T01:07:29;1.87;;;0.93;;
21769;SDS011;11046;49.558;8.674;2023-01-15T01:10:30;2.97;;;1.00;;
21769;SDS011;11046;49.558;8.674;2023-01-15T01:13:31;1.27;;;1.03;;
21769;SDS011;11046;49.558;8.674;2023-01-15T01:16:33;4.43;;;1.13;;
21769;SDS011;11046;49.558;8.674;2023-01-15T01:19:36;4.43;;;0.93;;
21769;SDS011;11046;49.558;8.674;2023-01-15T01:22:37;2.17;;;1.03;;
21769;SDS011;11046;49.558;8.674;2023-01-15T01:25:37;1.83;;;0.93;;
21769;SDS011;11046;49.558;8.674;2023-01-15T01:28:38;2.47;;;1.00;;
21769;SDS011;11046;49.558;8.674;2023-01-15T01:31:40;2.13;;;1.00;;
21769;SDS011;11046;49.558;8.674;2023-01-15T01:34:41;1.23;;;0.90;;
21769;SDS011;11046;49.558;8.674;2023-01-15T01:37:41;1.40;;;0.80;;
21769;SDS011;11046;49.558;8.674;2023-01-15T01:40:42;0.80;;;0.80;;
21769;SDS011;11046;49.558;8.674;2023-01-15T01:43:53;1.57;;;0.90;;
21769;SDS011;11046;49.558;8.674;2023-01-15T01:46:54;1.67;;;0.90;;
21769;SDS011;11046;49.558;8.674;2023-01-15T01:49:59;2.50;;;1.00;;
21769;SDS011;11046;49.558;8.674;2023-01-15T01:53:11;1.30;;;0.90;;
21769;SDS011;11046;49.558;8.674;2023-01-15T01:56:16;0.90;;;0.80;;
21769;SDS011;11046;49.558;8.674;2023-01-15T01:59:18;1.70;;;0.90;;
21769;SDS011;11046;49.558;8.674;2023-01-15T02:02:20;0.90;;;0.90;;
21769;SDS011;11046;49.558;8.674;2023-01-15T02:05:24;1.47;;;1.00;;
21769;SDS011;11046;49.558;8.674;2023-01-15T02:08:29;2.70;;;0.90;;
21769;SDS011;11046;49.558;8.674;2023-01-15T02:11:31;2.90;;;1.20;;
21769;SDS011;11046;49.558;8.674;2023-01-15T02:14:34;1.20;;;0.90;;
21769;SDS011;11046;49.558;8.674;2023-01-15T02:17:53;2.33;;;0.83;;
21769;SDS011;11046;49.558;8.674;2023-01-15T02:21:00;1.70;;;1.00;;
21769;SDS011;11046;49.558;8.674;2023-01-15T02:27:44;2.37;;;0.97;;
21769;SDS011;11046;49.558;8.674;2023-01-15T02:30:49;1.30;;;0.80;;
21769;SDS011;11046;49.558;8.674;2023-01-15T02:34:00;1.03;;;0.83;;
21769;SDS011;11046;49.558;8.674;2023-01-15T02:37:09;2.37;;;1.23;;
21769;SDS011;11046;49.558;8.674;2023-01-15T02:40:15;1.37;;;0.80;;
21769;SDS011;11046;49.558;8.674;2023-01-15T02:43:20;5.23;;;1.03;;
21769;SDS011;11046;49.558;8.674;2023-01-15T02:46:24;1.77;;;0.80;;
21769;SDS011;11046;49.558;8.674;2023-01-15T02:49:28;1.97;;;0.80;;
21769;SDS011;11046;49.558;8.674;2023-01-15T02:52:37;3.87;;;1.53;;
21769;SDS011;11046;49.558;8.674;2023-01-15T02:55:42;2.67;;;1.20;;
21769;SDS011;11046;49.558;8.674;2023-01-15T02:58:47;4.37;;;1.27;;
21769;SDS011;11046;49.558;8.674;2023-01-15T03:01:54;1.67;;;1.10;;
21769;SDS011;11046;49.558;8.674;2023-01-15T03:05:05;3.43;;;1.33;;
21769;SDS011;11046;49.558;8.674;2023-01-15T03:08:09;2.33;;;0.70;;
21769;SDS011;11046;49.558;8.674;2023-01-15T03:11:13;1.60;;;0.50;;
21769;SDS011;11046;49.558;8.674;2023-01-15T03:14:22;0.67;;;0.67;;
21769;SDS011;11046;49.558;8.674;2023-01-15T03:17:38;1.47;;;0.30;;
21769;SDS011;11046;49.558;8.674;2023-01-15T03:21:07;0.40;;;0.27;;
21769;SDS011;11046;49.558;8.674;2023-01-15T03:24:13;0.53;;;0.30;;
21769;SDS011;11046;49.558;8.674;2023-01-15T03:27:18;0.43;;;0.30;;
21769;SDS011;11046;49.558;8.674;2023-01-15T03:30:24;0.87;;;0.33;;
21769;SDS011;11046;49.558;8.674;2023-01-15T03:33:25;0.90;;;0.33;;
21769;SDS011;11046;49.558;8.674;2023-01-15T03:36:27;0.40;;;0.33;;
21769;SDS011;11046;49.558;8.674;2023-01-15T03:39:34;0.70;;;0.30;;
21769;SDS011;11046;49.558;8.674;2023-01-15T03:53:26;0.40;;;0.40;;
21769;SDS011;11046;49.558;8.674;2023-01-15T03:59:57;0.70;;;0.40;;
21769;SDS011;11046;49.558;8.674;2023-01-15T04:03:05;0.50;;;0.50;;
21769;SDS011;11046;49.558;8.674;2023-01-15T04:06:09;0.53;;;0.40;;
21769;SDS011;11046;49.558;8.674;2023-01-15T04:09:11;0.50;;;0.50;;
21769;SDS011;11046;49.558;8.674;2023-01-15T04:12:16;0.37;;;0.37;;
21769;SDS011;11046;49.558;8.674;2023-01-15T04:15:20;0.67;;;0.40;;
21769;SDS011;11046;49.558;8.674;2023-01-15T04:18:22;0.50;;;0.50;;
21769;SDS011;11046;49.558;8.674;2023-01-15T04:21:22;0.67;;;0.40;;
21769;SDS011;11046;49.558;8.674;2023-01-15T04:24:23;0.87;;;0.40;;
21769;SDS011;11046;49.558;8.674;2023-01-15T04:27:24;1.90;;;0.50;;
21769;SDS011;11046;49.558;8.674;2023-01-15T04:30:26;0.30;;;0.30;;
21769;SDS011;11046;49.558;8.674;2023-01-15T04:33:26;0.30;;;0.30;;
21769;SDS011;11046;49.558;8.674;2023-01-15T04:36:27;0.40;;;0.40;;
21769;SDS011;11046;49.558;8.674;2023-01-15T04:39:28;0.30;;;0.30;;
21769;SDS011;11046;49.558;8.674;2023-01-15T04:42:28;0.30;;;0.30;;
21769;SDS011;11046;49.558;8.674;2023-01-15T04:45:47;0.40;;;0.30;;
21769;SDS011;11046;49.558;8.674;2023-01-15T04:48:48;1.07;;;0.30;;
21769;SDS011;11046;49.558;8.674;2023-01-15T04:51:49;1.53;;;0.43;;
21769;SDS011;11046;49.558;8.674;2023-01-15T04:54:49;0.30;;;0.30;;
21769;SDS011;11046;49.558;8.674;2023-01-15T04:57:50;0.30;;;0.30;;
21769;SDS011;11046;49.558;8.674;2023-01-15T05:00:50;0.30;;;0.30;;
21769;SDS011;11046;49.558;8.674;2023-01-15T05:03:51;0.50;;;0.50;;
21769;SDS011;11046;49.558;8.674;2023-01-15T05:06:51;0.70;;;0.53;;
21769;SDS011;11046;49.558;8.674;2023-01-15T05:09:52;1.73;;;0.50;;
21769;SDS011;11046;49.558;8.674;2023-01-15T05:12:53;1.60;;;0.80;;
21769;SDS011;11046;49.558;8.674;2023-01-15T05:15:54;0.60;;;0.60;;
21769;SDS011;11046;49.558;8.674;2023-01-15T05:18:56;0.73;;;0.50;;
21769;SDS011;11046;49.558;8.674;2023-01-15T05:21:58;0.30;;;0.30;;
21769;SDS011;11046;49.558;8.674;2023-01-15T05:24:59;0.80;;;0.50;;
21769;SDS011;11046;49.558;8.674;2023-01-15T05:28:00;1.27;;;0.40;;
21769;SDS011;11046;49.558;8.674;2023-01-15T05:31:07;0.40;;;0.40;;
21769;SDS011;11046;49.558;8.674;2023-01-15T05:34:09;4.50;;;0.40;;
21769;SDS011;11046;49.558;8.674;2023-01-15T05:37:10;0.50;;;0.40;;
21769;SDS011;11046;49.558;8.674;2023-01-15T05:40:11;0.30;;;0.30;;
21769;SDS011;11046;49.558;8.674;2023-01-15T05:43:11;0.47;;;0.47;;
21769;SDS011;11046;49.558;8.674;2023-01-15T05:46:12;0.30;;;0.30;;
21769;SDS011;11046;49.558;8.674;2023-01-15T05:49:14;1.90;;;0.50;;
21769;SDS011;11046;49.558;8.674;2023-01-15T05:52:17;0.83;;;0.47;;
21769;SDS011;11046;49.558;8.674;2023-01-15T05:55:18;0.30;;;0.30;;
21769;SDS011;11046;49.558;8.674;2023-01-15T05:58:18;0.40;;;0.40;;
21769;SDS011;11046;49.558;8.674;2023-01-15T06:01:19;0.40;;;0.40;;
21769;SDS011;11046;49.558;8.674;2023-01-15T06:04:21;0.40;;;0.40;;
21769;SDS011;11046;49.558;8.674;2023-01-15T06:07:24;1.63;;;0.80;;
21769;SDS011;11046;49.558;8.674;2023-01-15T06:10:24;0.43;;;0.43;;
21769;SDS011;11046;49.558;8.674;2023-01-15T06:13:25;1.97;;;0.60;;
21769;SDS011;11046;49.558;8.674;2023-01-15T06:16:26;0.47;;;0.40;;
21769;SDS011;11046;49.558;8.674;2023-01-15T06:19:27;1.23;;;0.40;;
21769;SDS011;11046;49.558;8.674;2023-01-15T06:22:27;0.77;;;0.30;;
21769;SDS011;11046;49.558;8.674;2023-01-15T06:25:28;0.57;;;0.40;;
21769;SDS011;11046;49.558;8.674;2023-01-15T06:28:34;0.40;;;0.40;;
21769;SDS011;11046;49.558;8.674;2023-01-15T06:31:35;1.03;;;0.40;;
21769;SDS011;11046;49.558;8.674;2023-01-15T06:34:35;0.30;;;0.30;;
21769;SDS011;11046;49.558;8.674;2023-01-15T06:37:36;1.07;;;0.50;;
21769;SDS011;11046;49.558;8.674;2023-01-15T06:40:36;0.57;;;0.40;;
21769;SDS011;11046;49.558;8.674;2023-01-15T06:43:39;0.40;;;0.30;;
21769;SDS011;11046;49.558;8.674;2023-01-15T06:47:00;0.40;;;0.40;;
21769;SDS011;11046;49.558;8.674;2023-01-15T06:50:20;2.40;;;0.50;;
21769;SDS011;11046;49.558;8.674;2023-01-15T06:53:21;0.67;;;0.63;;
21769;SDS011;11046;49.558;8.674;2023-01-15T06:56:22;1.03;;;0.40;;
21769;SDS011;11046;49.558;8.674;2023-01-15T06:59:23;0.40;;;0.40;;
21769;SDS011;11046;49.558;8.674;2023-01-15T07:02:23;0.50;;;0.47;;
21769;SDS011;11046;49.558;8.674;2023-01-15T07:05:24;0.50;;;0.50;;
21769;SDS011;11046;49.558;8.674;2023-01-15T07:08:26;0.50;;;0.50;;
21769;SDS011;11046;49.558;8.674;2023-01-15T07:11:26;1.40;;;0.50;;
21769;SDS011;11046;49.558;8.674;2023-01-15T07:14:27;0.50;;;0.50;;
21769;SDS011;11046;49.558;8.674;2023-01-15T07:17:27;0.67;;;0.50;;
21769;SDS011;11046;49.558;8.674;2023-01-15T07:20:28;1.93;;;0.90;;
21769;SDS011;11046;49.558;8.674;2023-01-15T07:23:29;1.90;;;1.00;;
21769;SDS011;11046;49.558;8.674;2023-01-15T07:26:29;3.00;;;1.13;;
21769;SDS011;11046;49.558;8.674;2023-01-15T07:29:30;1.47;;;1.07;;
21769;SDS011;11046;49.558;8.674;2023-01-15T07:32:30;0.80;;;0.80;;
21769;SDS011;11046;49.558;8.674;2023-01-15T07:35:31;2.27;;;0.60;;
21769;SDS011;11046;49.558;8.674;2023-01-15T07:38:35;2.70;;;1.80;;
21769;SDS011;11046;49.558;8.674;2023-01-15T07:41:35;2.00;;;1.50;;
21769;SDS011;11046;49.558;8.674;2023-01-15T07:44:55;1.87;;;1.37;;
21769;SDS011;11046;49.558;8.674;2023-01-15T07:48:14;1.07;;;0.80;;
21769;SDS011;11046;49.558;8.674;2023-01-15T07:51:34;2.03;;;1.40;;
21769;SDS011;11046;49.558;8.674;2023-01-15T07:54:36;0.80;;;0.70;;
21769;SDS011;11046;49.558;8.674;2023-01-15T07:57:36;1.27;;;0.80;;
21769;SDS011;11046;49.558;8.674;2023-01-15T08:00:37;1.17;;;0.90;;
21769;SDS011;11046;49.558;8.674;2023-01-15T08:03:38;1.60;;;1.33;;
21769;SDS011;11046;49.558;8.674;2023-01-15T08:06:38;2.13;;;1.20;;
21769;SDS011;11046;49.558;8.674;2023-01-15T08:09:39;1.60;;;1.27;;
21769;SDS011;11046;49.558;8.674;2023-01-15T08:12:40;1.73;;;1.40;;
21769;SDS011;11046;49.558;8.674;2023-01-15T08:15:59;4.10;;;1.80;;
21769;SDS011;11046;49.558;8.674;2023-01-15T08:18:59;4.57;;;1.70;;
21769;SDS011;11046;49.558;8.674;2023-01-15T08:22:00;2.10;;;1.50;;
21769;SDS011;11046;49.558;8.674;2023-01-15T08:25:00;3.27;;;2.10;;
21769;SDS011;11046;49.558;8.674;2023-01-15T08:28:01;3.40;;;2.20;;
21769;SDS011;11046;49.558;8.674;2023-01-15T08:31:04;2.70;;;1.70;;
21769;SDS011;11046;49.558;8.674;2023-01-15T08:34:05;4.50;;;2.60;;
21769;SDS011;11046;49.558;8.674;2023-01-15T08:37:07;1.30;;;1.00;;
21769;SDS011;11046;49.558;8.674;2023-01-15T08:40:08;1.10;;;1.00;;
21769;SDS011;11046;49.558;8.674;2023-01-15T08:43:10;2.27;;;1.53;;
21769;SDS011;11046;49.558;8.674;2023-01-15T08:46:10;2.17;;;1.40;;
21769;SDS011;11046;49.558;8.674;2023-01-15T08:49:11;2.60;;;1.33;;
21769;SDS011;11046;49.558;8.674;2023-01-15T08:52:11;1.27;;;0.90;;
21769;SDS011;11046;49.558;8.674;2023-01-15T08:55:12;0.77;;;0.70;;
21769;SDS011;11046;49.558;8.674;2023-01-15T08:58:13;1.20;;;0.80;;
21769;SDS011;11046;49.558;8.674;2023-01-15T09:01:14;1.83;;;0.80;;
21769;SDS011;11046;49.558;8.674;2023-01-15T09:04:16;2.37;;;1.10;;
21769;SDS011;11046;49.558;8.674;2023-01-15T09:07:18;1.70;;;1.17;;
21769;SDS011;11046;49.558;8.674;2023-01-15T09:10:19;3.63;;;1.60;;
21769;SDS011;11046;49.558;8.674;2023-01-15T09:13:20;2.50;;;2.20;;
21769;SDS011;11046;49.558;8.674;2023-01-15T09:16:21;9.23;;;2.63;;
21769;SDS011;11046;49.558;8.674;2023-01-15T09:19:22;27.97;;;10.33;;
21769;SDS011;11046;49.558;8.674;2023-01-15T09:22:22;27.93;;;13.30;;
21769;SDS011;11046;49.558;8.674;2023-01-15T09:25:24;22.37;;;11.10;;
21769;SDS011;11046;49.558;8.674;2023-01-15T09:28:25;11.23;;;7.23;;
21769;SDS011;11046;49.558;8.674;2023-01-15T09:31:26;15.63;;;7.17;;
21769;SDS011;11046;49.558;8.674;2023-01-15T09:34:27;10.83;;;6.27;;
21769;SDS011;11046;49.558;8.674;2023-01-15T09:37:27;4.33;;;2.73;;
21769;SDS011;11046;49.558;8.674;2023-01-15T09:40:42;4.73;;;2.70;;
21769;SDS011;11046;49.558;8.674;2023-01-15T09:43:51;5.40;;;3.40;;
21769;SDS011;11046;49.558;8.674;2023-01-15T09:54:02;6.83;;;2.40;;
21769;SDS011;11046;49.558;8.674;2023-01-15T09:57:31;5.87;;;1.87;;
21769;SDS011;11046;49.558;8.674;2023-01-15T10:00:40;2.27;;;1.53;;
21769;SDS011;11046;49.558;8.674;2023-01-15T10:03:48;2.30;;;1.60;;
21769;SDS011;11046;49.558;8.674;2023-01-15T10:07:02;5.13;;;1.77;;
21769;SDS011;11046;49.558;8.674;2023-01-15T10:10:30;3.77;;;1.53;;
21769;SDS011;11046;49.558;8.674;2023-01-15T10:17:00;2.43;;;1.27;;
21769;SDS011;11046;49.558;8.674;2023-01-15T10:20:01;2.50;;;1.30;;
21769;SDS011;11046;49.558;8.674;2023-01-15T10:23:19;2.90;;;1.73;;
21769;SDS011;11046;49.558;8.674;2023-01-15T10:32:43;1.30;;;1.07;;
21769;SDS011;11046;49.558;8.674;2023-01-15T10:35:56;1.27;;;0.50;;
21769;SDS011;11046;49.558;8.674;2023-01-15T10:46:04;1.63;;;0.67;;
21769;SDS011;11046;49.558;8.674;2023-01-15T10:49:13;2.33;;;1.20;;
21769;SDS011;11046;49.558;8.674;2023-01-15T10:52:22;4.37;;;1.57;;
21769;SDS011;11046;49.558;8.674;2023-01-15T10:55:51;5.27;;;2.17;;
21769;SDS011;11046;49.558;8.674;2023-01-15T10:58:57;2.33;;;1.40;;
21769;SDS011;11046;49.558;8.674;2023-01-15T11:05:36;3.00;;;1.50;;
21769;SDS011;11046;49.558;8.674;2023-01-15T11:08:38;5.20;;;1.60;;
21769;SDS011;11046;49.558;8.674;2023-01-15T11:11:51;2.37;;;1.10;;
21769;SDS011;11046;49.558;8.674;2023-01-15T11:14:59;3.83;;;2.00;;
21769;SDS011;11046;49.558;8.674;2023-01-15T11:18:26;9.00;;;2.03;;
21769;SDS011;11046;49.558;8.674;2023-01-15T11:21:47;1.97;;;0.90;;
21769;SDS011;11046;49.558;8.674;2023-01-15T11:24:50;2.80;;;1.00;;
21769;SDS011;11046;49.558;8.674;2023-01-15T11:27:56;1.20;;;1.07;;
21769;SDS011;11046;49.558;8.674;2023-01-15T11:30:58;2.63;;;1.30;;
21769;SDS011;11046;49.558;8.674;2023-01-15T11:34:00;2.13;;;1.10;;
21769;SDS011;11046;49.558;8.674;2023-01-15T11:37:04;2.90;;;1.73;;
21769;SDS011;11046;49.558;8.674;2023-01-15T11:40:14;2.10;;;1.43;;
21769;SDS011;11046;49.558;8.674;2023-01-15T11:43:21;2.87;;;1.70;;
21769;SDS011;11046;49.558;8.674;2023-01-15T11:46:44;10.70;;;5.53;;
21769;SDS011;11046;49.558;8.674;2023-01-15T11:50:22;2.37;;;1.60;;
21769;SDS011;11046;49.558;8.674;2023-01-15T11:53:50;2.93;;;1.77;;
21769;SDS011;11046;49.558;8.674;2023-01-15T11:56:54;3.73;;;2.00;;
21769;SDS011;11046;49.558;8.674;2023-01-15T11:59:55;2.50;;;1.30;;
21769;SDS011;11046;49.558;8.674;2023-01-15T12:02:58;3.47;;;1.07;;
21769;SDS011;11046;49.558;8.674;2023-01-15T12:06:07;3.53;;;1.40;;
21769;SDS011;11046;49.558;8.674;2023-01-15T12:09:27;2.03;;;0.87;;
21769;SDS011;11046;49.558;8.674;2023-01-15T12:12:41;3.40;;;1.20;;
21769;SDS011;11046;49.558;8.674;2023-01-15T12:15:56;4.27;;;1.30;;
21769;SDS011;11046;49.558;8.674;2023-01-15T12:22:58;4.60;;;1.87;;
21769;SDS011;11046;49.558;8.674;2023-01-15T12:26:17;4.23;;;1.90;;
21769;SDS011;11046;49.558;8.674;2023-01-15T12:29:45;4.07;;;1.30;;
21769;SDS011;11046;49.558;8.674;2023-01-15T12:32:56;4.27;;;1.90;;
21769;SDS011;11046;49.558;8.674;2023-01-15T12:39:29;2.97;;;1.40;;
21769;SDS011;11046;49.558;8.674;2023-01-15T12:42:36;5.13;;;1.60;;
21769;SDS011;11046;49.558;8.674;2023-01-15T12:45:55;3.67;;;1.50;;
21769;SDS011;11046;49.558;8.674;2023-01-15T12:52:35;5.43;;;1.90;;
21769;SDS011;11046;49.558;8.674;2023-01-15T12:55:42;2.10;;;1.00;;
21769;SDS011;11046;49.558;8.674;2023-01-15T13:05:38;5.20;;;1.50;;
21769;SDS011;11046;49.558;8.674;2023-01-15T13:09:01;2.43;;;1.30;;
21769;SDS011;11046;49.558;8.674;2023-01-15T13:12:11;4.20;;;1.47;;
21769;SDS011;11046;49.558;8.674;2023-01-15T13:15:14;4.53;;;1.50;;
21769;SDS011;11046;49.558;8.674;2023-01-15T13:21:50;3.20;;;1.43;;
21769;SDS011;11046;49.558;8.674;2023-01-15T13:25:07;4.03;;;1.47;;
21769;SDS011;11046;49.558;8.674;2023-01-15T13:28:38;5.63;;;2.10;;
21769;SDS011;11046;49.558;8.674;2023-01-15T13:35:01;5.33;;;2.20;;
21769;SDS011;11046;49.558;8.674;2023-01-15T13:38:15;3.97;;;1.47;;
21769;SDS011;11046;49.558;8.674;2023-01-15T13:41:20;5.43;;;1.57;;
21769;SDS011;11046;49.558;8.674;2023-01-15T13:44:46;3.87;;;1.47;;
21769;SDS011;11046;49.558;8.674;2023-01-15T13:47:50;3.87;;;1.70;;
21769;SDS011;11046;49.558;8.674;2023-01-15T13:50:54;7.50;;;2.20;;
21769;SDS011;11046;49.558;8.674;2023-01-15T13:53:58;8.97;;;2.80;;
21769;SDS011;11046;49.558;8.674;2023-01-15T13:57:20;7.07;;;2.33;;
21769;SDS011;11046;49.558;8.674;2023-01-15T14:00:28;5.77;;;2.20;;
21769;SDS011;11046;49.558;8.674;2023-01-15T14:03:35;9.07;;;1.90;;
21769;SDS011;11046;49.558;8.674;2023-01-15T14:06:41;4.80;;;1.80;;
21769;SDS011;11046;49.558;8.674;2023-01-15T14:09:42;7.20;;;1.57;;
21769;SDS011;11046;49.558;8.674;2023-01-15T14:16:17;4.43;;;1.80;;
21769;SDS011;11046;49.558;8.674;2023-01-15T14:19:51;5.87;;;2.00;;
21769;SDS011;11046;49.558;8.674;2023-01-15T14:23:11;6.87;;;2.17;;
21769;SDS011;11046;49.558;8.674;2023-01-15T14:36:45;8.13;;;2.90;;
21769;SDS011;11046;49.558;8.674;2023-01-15T14:39:52;4.17;;;1.57;;
21769;SDS011;11046;49.558;8.674;2023-01-15T14:43:00;7.17;;;1.87;;
21769;SDS011;11046;49.558;8.674;2023-01-15T14:49:26;7.17;;;2.10;;
21769;SDS011;11046;49.558;8.674;2023-01-15T14:52:31;9.43;;;2.53;;
21769;SDS011;11046;49.558;8.674;2023-01-15T14:55:32;7.13;;;2.00;;
21769;SDS011;11046;49.558;8.674;2023-01-15T15:04:51;7.00;;;2.07;;
21769;SDS011;11046;49.558;8.674;2023-01-15T15:07:55;4.43;;;2.20;;
21769;SDS011;11046;49.558;8.674;2023-01-15T15:10:55;3.40;;;1.90;;
21769;SDS011;11046;49.558;8.674;2023-01-15T15:13:58;5.37;;;2.37;;
21769;SDS011;11046;49.558;8.674;2023-01-15T15:17:00;5.33;;;1.83;;
21769;SDS011;11046;49.558;8.674;2023-01-15T15:20:29;6.93;;;2.67;;
21769;SDS011;11046;49.558;8.674;2023-01-15T15:26:36;6.57;;;2.00;;
21769;SDS011;11046;49.558;8.674;2023-01-15T15:29:38;4.97;;;1.63;;
21769;SDS011;11046;49.558;8.674;2023-01-15T15:32:38;5.67;;;2.10;;
21769;SDS011;11046;49.558;8.674;2023-01-15T15:35:42;6.13;;;2.10;;
21769;SDS011;11046;49.558;8.674;2023-01-15T15:39:00;7.00;;;1.83;;
21769;SDS011;11046;49.558;8.674;2023-01-15T15:42:02;7.73;;;2.30;;
21769;SDS011;11046;49.558;8.674;2023-01-15T15:45:31;3.70;;;1.87;;
21769;SDS011;11046;49.558;8.674;2023-01-15T15:48:55;5.33;;;1.60;;
21769;SDS011;11046;49.558;8.674;2023-01-15T15:51:57;3.50;;;1.77;;
21769;SDS011;11046;49.558;8.674;2023-01-15T15:54:58;8.90;;;1.83;;
21769;SDS011;11046;49.558;8.674;2023-01-15T15:57:59;3.53;;;1.30;;
21769;SDS011;11046;49.558;8.674;2023-01-15T16:01:01;3.27;;;1.60;;
21769;SDS011;11046;49.558;8.674;2023-01-15T16:04:02;6.20;;;1.83;;
21769;SDS011;11046;49.558;8.674;2023-01-15T16:07:10;4.10;;;1.90;;
21769;SDS011;11046;49.558;8.674;2023-01-15T16:10:31;4.97;;;1.33;;
21769;SDS011;11046;49.558;8.674;2023-01-15T16:13:34;5.40;;;1.40;;
21769;SDS011;11046;49.558;8.674;2023-01-15T16:16:50;12.13;;;4.03;;
21769;SDS011;11046;49.558;8.674;2023-01-15T16:19:52;9.23;;;2.40;;
21769;SDS011;11046;49.558;8.674;2023-01-15T16:22:57;7.70;;;2.67;;
21769;SDS011;11046;49.558;8.674;2023-01-15T16:29:29;6.57;;;2.23;;
21769;SDS011;11046;49.558;8.674;2023-01-15T16:32:32;5.83;;;2.30;;
21769;SDS011;11046;49.558;8.674;2023-01-15T16:35:35;7.13;;;2.80;;
21769;SDS011;11046;49.558;8.674;2023-01-15T16:38:40;6.43;;;1.83;;
21769;SDS011;11046;49.558;8.674;2023-01-15T16:41:42;4.83;;;1.90;;
21769;SDS011;11046;49.558;8.674;2023-01-15T16:44:55;6.00;;;2.80;;
21769;SDS011;11046;49.558;8.674;2023-01-15T16:57:31;3.90;;;1.40;;
21769;SDS011;11046;49.558;8.674;2023-01-15T17:00:32;4.97;;;1.80;;
21769;SDS011;11046;49.558;8.674;2023-01-15T17:03:33;6.87;;;1.70;;
21769;SDS011;11046;49.558;8.674;2023-01-15T17:06:33;5.77;;;1.87;;
21769;SDS011;11046;49.558;8.674;2023-01-15T17:09:34;5.43;;;1.90;;
21769;SDS011;11046;49.558;8.674;2023-01-15T17:12:40;5.57;;;2.00;;
21769;SDS011;11046;49.558;8.674;2023-01-15T17:15:42;7.57;;;2.37;;
21769;SDS011;11046;49.558;8.674;2023-01-15T17:18:43;4.90;;;2.43;;
21769;SDS011;11046;49.558;8.674;2023-01-15T17:21:44;10.57;;;5.73;;
21769;SDS011;11046;49.558;8.674;2023-01-15T17:24:47;4.80;;;2.27;;
21769;SDS011;11046;49.558;8.674;2023-01-15T17:27:48;11.37;;;3.63;;
21769;SDS011;11046;49.558;8.674;2023-01-15T17:30:49;4.60;;;2.63;;
21769;SDS011;11046;49.558;8.674;2023-01-15T17:33:51;7.40;;;3.00;;
21769;SDS011;11046;49.558;8.674;2023-01-15T17:36:52;9.30;;;3.03;;
21769;SDS011;11046;49.558;8.674;2023-01-15T17:39:52;5.30;;;2.27;;
21769;SDS011;11046;49.558;8.674;2023-01-15T17:42:53;7.30;;;1.97;;
21769;SDS011;11046;49.558;8.674;2023-01-15T17:45:54;7.77;;;2.10;;
21769;SDS011;11046;49.558;8.674;2023-01-15T17:48:54;5.57;;;2.23;;
21769;SDS011;11046;49.558;8.674;2023-01-15T17:51:55;6.03;;;2.40;;
21769;SDS011;11046;49.558;8.674;2023-01-15T17:54:55;6.00;;;1.90;;
21769;SDS011;11046;49.558;8.674;2023-01-15T17:58:15;5.60;;;2.20;;
21769;SDS011;11046;49.558;8.674;2023-01-15T18:01:39;7.50;;;1.90;;
21769;SDS011;11046;49.558;8.674;2023-01-15T18:05:01;11.50;;;2.57;;
21769;SDS011;11046;49.558;8.674;2023-01-15T18:08:20;8.40;;;2.53;;
21769;SDS011;11046;49.558;8.674;2023-01-15T18:11:21;6.70;;;2.40;;
21769;SDS011;11046;49.558;8.674;2023-01-15T18:14:22;8.03;;;2.60;;
21769;SDS011;11046;49.558;8.674;2023-01-15T18:17:22;7.07;;;1.90;;
21769;SDS011;11046;49.558;8.674;2023-01-15T18:20:23;5.10;;;1.97;;
21769;SDS011;11046;49.558;8.674;2023-01-15T18:23:23;3.87;;;1.73;;
21769;SDS011;11046;49.558;8.674;2023-01-15T18:26:25;4.53;;;1.97;;
21769;SDS011;11046;49.558;8.674;2023-01-15T18:29:26;6.93;;;2.67;;
21769;SDS011;11046;49.558;8.674;2023-01-15T18:32:27;8.70;;;3.23;;
21769;SDS011;11046;49.558;8.674;2023-01-15T18:35:29;10.10;;;3.37;;
21769;SDS011;11046;49.558;8.674;2023-01-15T18:38:30;7.40;;;2.30;;
21769;SDS011;11046;49.558;8.674;2023-01-15T18:41:33;9.77;;;3.40;;
21769;SDS011;11046;49.558;8.674;2023-01-15T18:44:37;7.63;;;1.90;;
21769;SDS011;11046;49.558;8.674;2023-01-15T18:47:59;5.03;;;2.80;;
21769;SDS011;11046;49.558;8.674;2023-01-15T18:51:07;6.43;;;2.27;;
21769;SDS011;11046;49.558;8.674;2023-01-15T18:54:09;5.57;;;2.50;;
21769;SDS011;11046;49.558;8.674;2023-01-15T18:57:09;5.53;;;2.43;;
21769;SDS011;11046;49.558;8.674;2023-01-15T19:00:10;5.87;;;2.67;;
21769;SDS011;11046;49.558;8.674;2023-01-15T19:03:11;6.83;;;2.20;;
21769;SDS011;11046;49.558;8.674;2023-01-15T19:06:12;5.20;;;1.97;;
21769;SDS011;11046;49.558;8.674;2023-01-15T19:09:12;6.10;;;1.93;;
21769;SDS011;11046;49.558;8.674;2023-01-15T19:12:15;8.43;;;2.33;;
21769;SDS011;11046;49.558;8.674;2023-01-15T19:15:17;6.33;;;2.60;;
21769;SDS011;11046;49.558;8.674;2023-01-15T19:18:37;6.77;;;2.60;;
21769;SDS011;11046;49.558;8.674;2023-01-15T19:21:40;8.40;;;2.60;;
21769;SDS011;11046;49.558;8.674;2023-01-15T19:24:41;7.37;;;2.37;;
21769;SDS011;11046;49.558;8.674;2023-01-15T19:27:42;6.30;;;2.50;;
21769;SDS011;11046;49.558;8.674;2023-01-15T19:30:43;6.17;;;1.93;;
21769;SDS011;11046;49.558;8.674;2023-01-15T19:34:04;13.40;;;3.87;;
21769;SDS011;11046;49.558;8.674;2023-01-15T19:37:10;15.67;;;5.00;;
21769;SDS011;11046;49.558;8.674;2023-01-15T19:40:12;6.90;;;2.50;;
21769;SDS011;11046;49.558;8.674;2023-01-15T19:43:20;8.47;;;2.13;;
21769;SDS011;11046;49.558;8.674;2023-01-15T19:46:40;6.37;;;2.53;;
21769;SDS011;11046;49.558;8.674;2023-01-15T19:49:59;10.63;;;3.53;;
21769;SDS011;11046;49.558;8.674;2023-01-15T19:53:18;10.10;;;3.10;;
21769;SDS011;11046;49.558;8.674;2023-01-15T19:56:19;5.47;;;1.90;;
21769;SDS011;11046;49.558;8.674;2023-01-15T19:59:19;7.20;;;1.87;;
21769;SDS011;11046;49.558;8.674;2023-01-15T20:02:20;7.33;;;2.30;;
21769;SDS011;11046;49.558;8.674;2023-01-15T20:05:21;6.20;;;2.37;;
21769;SDS011;11046;49.558;8.674;2023-01-15T20:08:23;9.93;;;2.30;;
21769;SDS011;11046;49.558;8.674;2023-01-15T20:11:24;8.33;;;2.23;;
21769;SDS011;11046;49.558;8.674;2023-01-15T20:14:44;6.23;;;1.80;;
21769;SDS011;11046;49.558;8.674;2023-01-15T20:17:45;4.97;;;1.47;;
21769;SDS011;11046;49.558;8.674;2023-01-15T20:20:45;10.40;;;4.07;;
21769;SDS011;11046;49.558;8.674;2023-01-15T20:23:46;9.70;;;2.30;;
21769;SDS011;11046;49.558;8.674;2023-01-15T20:26:46;4.23;;;1.80;;